createdAt,value
2023-04-29T00:01:43.839Z,96.80
2023-04-29T00:04:11.778Z,96.80
2023-04-29T00:06:40.038Z,96.80
2023-04-29T00:09:08.144Z,96.80
2023-04-29T00:11:35.839Z,96.80
2023-04-29T00:14:04.899Z,96.80
2023-04-29T00:16:32.827Z,96.80
2023-04-29T00:19:00.674Z,96.80
2023-04-29T00:21:28.551Z,96.80
2023-04-29T00:23:56.273Z,96.80
2023-04-29T00:26:23.923Z,96.80
2023-04-29T00:28:52.069Z,96.80
2023-04-29T00:31:21.664Z,96.80
2023-04-29T00:33:49.375Z,96.80
2023-04-29T00:36:17.822Z,96.80
2023-04-29T00:38:46.307Z,96.80
2023-04-29T00:41:14.884Z,96.80
2023-04-29T00:43:43.659Z,96.80
2023-04-29T00:46:11.676Z,96.80
2023-04-29T00:48:41.315Z,96.80
2023-04-29T00:51:09.810Z,96.80
2023-04-29T00:53:38.305Z,96.80
2023-04-29T00:56:07.414Z,96.80
2023-04-29T00:58:36.188Z,96.80
2023-04-29T01:01:04.605Z,96.80
2023-04-29T01:03:33.043Z,96.80
2023-04-29T01:06:14.805Z,96.80
2023-04-29T01:08:53.235Z,96.80
2023-04-29T01:11:28.271Z,96.80
2023-04-29T01:14:01.349Z,96.80
2023-04-29T01:16:35.754Z,96.80
2023-04-29T01:19:17.807Z,96.80
2023-04-29T01:21:49.595Z,96.80
2023-04-29T01:24:19.015Z,96.80
2023-04-29T01:26:58.321Z,96.80
2023-04-29T01:29:46.967Z,96.80
2023-04-29T01:32:19.928Z,96.80
2023-04-29T01:34:57.689Z,96.80
2023-04-29T01:37:35.003Z,96.80
2023-04-29T01:40:13.335Z,96.80
2023-04-29T01:42:49.160Z,96.80
2023-04-29T01:45:21.295Z,96.80
2023-04-29T01:47:52.149Z,96.80
2023-04-29T01:50:21.566Z,96.80
2023-04-29T01:52:49.819Z,96.80
2023-04-29T01:55:19.123Z,96.80
2023-04-29T01:57:54.902Z,96.80
2023-04-29T02:00:42.670Z,96.80
2023-04-29T02:03:10.682Z,96.80
2023-04-29T02:05:43.556Z,96.80
2023-04-29T02:08:11.322Z,96.80
2023-04-29T02:10:52.987Z,96.80
2023-04-29T02:13:38.917Z,96.80
2023-04-29T02:16:09.547Z,96.80
2023-04-29T02:18:38.949Z,96.80
2023-04-29T02:21:07.739Z,96.80
2023-04-29T02:23:36.471Z,96.80
2023-04-29T02:26:06.312Z,96.80
2023-04-29T02:28:34.678Z,96.80
2023-04-29T02:31:02.734Z,96.80
2023-04-29T02:33:31.693Z,96.80
2023-04-29T02:36:00.169Z,96.80
2023-04-29T02:38:28.002Z,96.80
2023-04-29T02:40:55.660Z,96.80
2023-04-29T02:43:24.716Z,96.80
2023-04-29T02:45:53.112Z,96.80
2023-04-29T02:48:20.995Z,96.80
2023-04-29T02:50:49.171Z,96.80
2023-04-29T02:53:17.055Z,96.70
2023-04-29T02:55:44.875Z,96.80
2023-04-29T02:58:12.561Z,96.80
2023-04-29T03:00:43.140Z,96.80
2023-04-29T03:03:11.199Z,96.80
2023-04-29T03:05:39.309Z,96.80
2023-04-29T03:08:07.423Z,96.80
2023-04-29T03:10:35.275Z,96.80
2023-04-29T03:13:03.714Z,96.70
2023-04-29T03:15:33.249Z,96.60
2023-04-29T03:18:04.607Z,96.40
2023-04-29T03:20:34.545Z,96.30
2023-04-29T03:23:05.548Z,96.10
2023-04-29T03:25:33.318Z,95.90
2023-04-29T03:28:01.190Z,95.90
2023-04-29T03:30:28.982Z,95.80
2023-04-29T03:32:59.196Z,95.60
2023-04-29T03:35:29.817Z,95.60
2023-04-29T03:38:17.543Z,95.60
2023-04-29T03:40:46.404Z,95.40
2023-04-29T03:43:17.350Z,94.90
2023-04-29T03:45:45.507Z,95.30
2023-04-29T03:48:16.778Z,95.40
2023-04-29T03:50:45.890Z,95.20
2023-04-29T03:53:13.912Z,94.80
2023-04-29T03:55:41.972Z,95.10
2023-04-29T03:58:11.282Z,95.00
2023-04-29T04:00:39.174Z,95.00
2023-04-29T04:03:13.998Z,94.80
2023-04-29T04:05:42.315Z,94.50
2023-04-29T04:08:14.548Z,94.50
2023-04-29T04:11:04.529Z,94.40
2023-04-29T04:13:37.037Z,94.40
2023-04-29T04:16:06.011Z,94.50
2023-04-29T04:18:33.836Z,94.60
2023-04-29T04:21:06.807Z,94.20
2023-04-29T04:23:36.714Z,94.40
2023-04-29T04:26:05.343Z,94.50
2023-04-29T04:28:53.030Z,94.60
2023-04-29T04:31:29.918Z,94.70
2023-04-29T04:33:59.643Z,94.40
2023-04-29T04:36:28.885Z,94.00
2023-04-29T04:38:58.105Z,93.90
2023-04-29T04:41:26.283Z,93.50
2023-04-29T04:43:54.600Z,93.70
2023-04-29T04:46:31.300Z,93.20
2023-04-29T04:49:18.025Z,93.20
2023-04-29T04:51:51.515Z,93.40
2023-04-29T04:54:20.960Z,93.30
2023-04-29T04:56:53.013Z,93.00
2023-04-29T04:59:21.308Z,92.80
2023-04-29T05:01:49.191Z,92.50
2023-04-29T05:04:17.393Z,92.70
2023-04-29T05:06:46.629Z,92.40
2023-04-29T05:09:14.419Z,92.70
2023-04-29T05:11:44.011Z,92.70
2023-04-29T05:14:14.909Z,93.20
2023-04-29T05:16:45.109Z,93.40
2023-04-29T05:19:13.469Z,93.80
2023-04-29T05:21:42.103Z,94.00
2023-04-29T05:24:11.755Z,94.10
2023-04-29T05:26:39.509Z,94.40
2023-04-29T05:29:09.461Z,94.60
2023-04-29T05:31:47.451Z,94.80
2023-04-29T05:34:15.425Z,95.00
2023-04-29T05:36:43.148Z,95.20
2023-04-29T05:39:11.253Z,95.00
2023-04-29T05:41:39.027Z,95.20
2023-04-29T05:44:20.636Z,95.40
2023-04-29T05:46:48.653Z,95.20
2023-04-29T05:49:16.909Z,95.00
2023-04-29T05:51:44.596Z,94.90
2023-04-29T05:54:12.336Z,94.80
2023-04-29T05:56:40.276Z,94.30
2023-04-29T05:59:08.279Z,93.70
2023-04-29T06:01:37.378Z,93.50
2023-04-29T06:04:06.314Z,93.30
2023-04-29T06:06:54.654Z,92.50
2023-04-29T06:09:37.450Z,92.30
2023-04-29T06:12:05.809Z,92.60
2023-04-29T06:14:33.701Z,92.30
2023-04-29T06:17:03.706Z,92.20
2023-04-29T06:19:32.582Z,92.20
2023-04-29T06:22:00.321Z,92.50
2023-04-29T06:24:28.105Z,92.80
2023-04-29T06:26:57.722Z,93.50
2023-04-29T06:29:28.025Z,93.70
2023-04-29T06:31:56.472Z,94.10
2023-04-29T06:34:25.768Z,94.20
2023-04-29T06:37:14.346Z,93.90
2023-04-29T06:40:02.495Z,93.60
2023-04-29T06:42:50.250Z,93.40
2023-04-29T06:45:37.912Z,92.50
2023-04-29T06:48:17.996Z,90.60
2023-04-29T06:50:53.341Z,90.10
2023-04-29T06:53:21.500Z,88.10
2023-04-29T06:55:49.222Z,86.00
2023-04-29T06:58:18.053Z,84.30
2023-04-29T07:00:46.973Z,84.50
2023-04-29T07:03:17.253Z,85.30
2023-04-29T07:05:45.912Z,85.30
2023-04-29T07:08:15.348Z,85.40
2023-04-29T07:10:43.428Z,85.80
2023-04-29T07:13:11.928Z,86.30
2023-04-29T07:15:39.824Z,86.30
2023-04-29T07:18:07.882Z,85.40
2023-04-29T07:20:37.832Z,85.90
2023-04-29T07:23:06.052Z,85.30
2023-04-29T07:25:35.853Z,85.60
2023-04-29T07:28:05.453Z,86.30
2023-04-29T07:30:33.387Z,85.30
2023-04-29T07:33:01.536Z,83.60
2023-04-29T07:35:29.444Z,81.20
2023-04-29T07:37:57.789Z,80.80
2023-04-29T07:40:27.732Z,75.80
2023-04-29T07:43:04.628Z,75.80
2023-04-29T07:45:32.639Z,75.60
2023-04-29T07:48:01.486Z,75.70
2023-04-29T07:50:29.744Z,76.30
2023-04-29T07:53:00.321Z,75.80
2023-04-29T07:55:29.735Z,77.10
2023-04-29T07:58:00.026Z,77.20
2023-04-29T08:00:29.995Z,77.10
2023-04-29T08:02:58.910Z,75.60
2023-04-29T08:05:28.255Z,73.20
2023-04-29T08:07:56.411Z,72.60
2023-04-29T08:10:27.193Z,74.20
2023-04-29T08:12:55.049Z,74.80
2023-04-29T08:15:23.467Z,77.80
2023-04-29T08:17:52.546Z,78.00
2023-04-29T08:20:21.690Z,78.10
2023-04-29T08:22:49.644Z,75.80
2023-04-29T08:25:17.599Z,74.60
2023-04-29T08:27:45.840Z,74.10
2023-04-29T08:30:13.904Z,74.10
2023-04-29T08:32:41.812Z,76.80
2023-04-29T08:35:11.159Z,77.00
2023-04-29T08:37:38.867Z,78.70
2023-04-29T08:40:08.043Z,79.10
2023-04-29T08:42:37.151Z,80.20
2023-04-29T08:45:06.091Z,80.00
2023-04-29T08:47:34.703Z,80.40
2023-04-29T08:50:04.915Z,81.60
2023-04-29T08:52:34.270Z,80.90
2023-04-29T08:55:02.491Z,81.30
2023-04-29T08:57:32.640Z,81.20
2023-04-29T09:00:01.114Z,81.10
2023-04-29T09:02:30.520Z,80.30
2023-04-29T09:05:06.648Z,81.00
2023-04-29T09:07:39.070Z,81.60
2023-04-29T09:10:07.657Z,82.00
2023-04-29T09:12:36.581Z,81.10
2023-04-29T09:15:07.045Z,81.80
2023-04-29T09:17:41.146Z,82.20
2023-04-29T09:20:29.057Z,82.50
2023-04-29T09:23:00.644Z,81.80
2023-04-29T09:25:29.175Z,83.30
2023-04-29T09:27:57.320Z,82.00
2023-04-29T09:30:26.667Z,81.30
2023-04-29T09:33:06.840Z,80.80
2023-04-29T09:35:35.068Z,81.20
2023-04-29T09:38:13.129Z,82.40
2023-04-29T09:40:57.562Z,82.20
2023-04-29T09:43:30.077Z,81.30
2023-04-29T09:45:58.679Z,80.10
2023-04-29T09:48:33.094Z,81.30
2023-04-29T09:51:02.756Z,81.20
2023-04-29T09:53:32.470Z,80.30
2023-04-29T09:56:02.156Z,80.70
2023-04-29T09:58:34.143Z,79.60
2023-04-29T10:01:04.864Z,78.90
2023-04-29T10:03:34.633Z,79.10
2023-04-29T10:06:04.895Z,79.10
2023-04-29T10:08:34.928Z,78.00
2023-04-29T10:11:04.088Z,79.80
2023-04-29T10:13:35.389Z,77.80
2023-04-29T10:16:12.699Z,77.50
2023-04-29T10:18:45.774Z,75.80
2023-04-29T10:21:15.067Z,75.00
2023-04-29T10:23:45.601Z,75.00
2023-04-29T10:26:14.893Z,75.80
2023-04-29T10:28:47.360Z,75.10
2023-04-29T10:31:19.783Z,73.60
2023-04-29T10:33:48.912Z,74.10
2023-04-29T10:36:17.767Z,73.30
2023-04-29T10:38:51.822Z,73.00
2023-04-29T10:41:25.367Z,73.90
2023-04-29T10:43:53.441Z,73.70
2023-04-29T10:46:22.514Z,73.40
2023-04-29T10:48:52.490Z,74.00
2023-04-29T10:51:32.596Z,74.60
2023-04-29T10:54:05.011Z,73.80
2023-04-29T10:56:41.814Z,75.70
2023-04-29T10:59:12.993Z,73.00
2023-04-29T11:01:44.089Z,72.90
2023-04-29T11:04:12.521Z,72.30
2023-04-29T11:06:42.739Z,72.00
2023-04-29T11:09:15.401Z,70.50
2023-04-29T11:11:46.905Z,68.80
2023-04-29T11:14:16.938Z,67.20
2023-04-29T11:17:00.399Z,67.70
2023-04-29T11:19:32.697Z,67.40
2023-04-29T11:22:25.285Z,68.40
2023-04-29T11:24:57.003Z,65.40
2023-04-29T11:27:28.280Z,64.30
2023-04-29T11:29:58.816Z,63.50
2023-04-29T11:32:28.141Z,63.70
2023-04-29T11:34:58.316Z,64.20
2023-04-29T11:37:27.893Z,63.70
2023-04-29T11:40:01.968Z,65.20
2023-04-29T11:42:29.731Z,64.40
2023-04-29T11:44:59.282Z,64.40
2023-04-29T11:47:29.249Z,64.50
2023-04-29T11:50:04.371Z,64.80
2023-04-29T11:52:33.187Z,66.70
2023-04-29T11:55:02.241Z,67.20
2023-04-29T11:57:30.376Z,65.70
2023-04-29T11:59:58.818Z,66.60
2023-04-29T12:02:31.514Z,63.90
2023-04-29T12:05:03.032Z,66.30
2023-04-29T12:07:31.353Z,65.30
2023-04-29T12:10:02.962Z,63.30
2023-04-29T12:12:36.182Z,62.50
2023-04-29T12:15:06.541Z,62.90
2023-04-29T12:17:38.122Z,61.90
2023-04-29T12:20:08.123Z,63.60
2023-04-29T12:22:36.867Z,65.80
2023-04-29T12:25:06.731Z,66.60
2023-04-29T12:27:36.583Z,67.00
2023-04-29T12:30:09.293Z,67.40
2023-04-29T12:32:37.524Z,68.40
2023-04-29T12:35:06.017Z,68.60
2023-04-29T12:37:35.132Z,68.90
2023-04-29T12:40:03.041Z,67.90
2023-04-29T12:42:34.905Z,66.70
2023-04-29T12:45:02.706Z,67.40
2023-04-29T12:47:34.639Z,68.70
2023-04-29T12:50:02.975Z,68.90
2023-04-29T12:52:30.896Z,68.50
2023-04-29T12:54:58.979Z,68.80
2023-04-29T12:57:28.989Z,70.20
2023-04-29T12:59:58.036Z,70.20
2023-04-29T13:02:26.327Z,69.70
2023-04-29T13:04:54.422Z,70.50
2023-04-29T13:07:22.610Z,69.80
2023-04-29T13:09:50.889Z,71.00
2023-04-29T13:12:18.636Z,71.00
2023-04-29T13:14:46.762Z,71.60
2023-04-29T13:17:16.044Z,71.10
2023-04-29T13:19:51.306Z,72.30
2023-04-29T13:22:20.051Z,71.30
2023-04-29T13:24:47.942Z,72.50
2023-04-29T13:27:15.805Z,69.60
2023-04-29T13:29:43.534Z,68.90
2023-04-29T13:32:11.410Z,69.50
2023-04-29T13:34:43.076Z,70.10
2023-04-29T13:37:11.481Z,69.30
2023-04-29T13:39:39.744Z,70.80
2023-04-29T13:42:08.748Z,69.70
2023-04-29T13:44:59.083Z,70.80
2023-04-29T13:47:29.870Z,70.20
2023-04-29T13:50:22.454Z,71.00
2023-04-29T13:58:40.070Z,71.50
2023-04-29T14:01:04.815Z,71.60
2023-04-29T14:03:32.541Z,72.00
2023-04-29T14:06:04.942Z,70.80
2023-04-29T14:08:32.681Z,70.80
2023-04-29T14:11:00.656Z,71.50
2023-04-29T14:13:29.213Z,70.40
2023-04-29T14:15:57.101Z,71.30
2023-04-29T14:18:25.019Z,70.20
2023-04-29T14:20:54.078Z,70.80
2023-04-29T14:23:23.095Z,71.10
2023-04-29T14:25:51.149Z,70.60
2023-04-29T14:28:18.851Z,70.00
2023-04-29T14:30:47.083Z,70.50
2023-04-29T14:33:15.118Z,71.50
2023-04-29T14:35:42.827Z,71.30
2023-04-29T14:38:10.546Z,69.90
2023-04-29T14:40:39.685Z,70.10
2023-04-29T14:43:07.883Z,70.40
2023-04-29T14:45:37.705Z,71.40
2023-04-29T14:48:05.608Z,72.40
2023-04-29T14:50:33.523Z,70.90
2023-04-29T14:53:01.497Z,71.00
2023-04-29T14:55:30.833Z,71.50
2023-04-29T14:58:00.683Z,71.10
2023-04-29T15:00:28.366Z,72.60
2023-04-29T15:02:57.025Z,72.30
2023-04-29T15:05:24.959Z,72.10
2023-04-29T15:07:53.136Z,72.20
2023-04-29T15:10:21.529Z,73.40
2023-04-29T15:12:51.196Z,72.80
2023-04-29T15:15:21.539Z,72.90
2023-04-29T15:17:51.099Z,73.50
2023-04-29T15:20:19.420Z,72.70
2023-04-29T15:22:47.403Z,73.50
2023-04-29T15:25:15.609Z,72.30
2023-04-29T15:27:43.311Z,72.00
2023-04-29T15:30:13.774Z,73.20
2023-04-29T15:32:43.997Z,73.30
2023-04-29T15:35:12.536Z,73.50
2023-04-29T15:37:40.350Z,74.20
2023-04-29T15:40:09.317Z,75.00
2023-04-29T15:42:36.991Z,75.10
2023-04-29T15:45:06.818Z,75.40
2023-04-29T15:47:34.564Z,75.00
2023-04-29T15:50:03.568Z,75.40
2023-04-29T15:52:31.258Z,75.80
2023-04-29T15:54:59.157Z,75.50
2023-04-29T15:57:27.135Z,76.00
2023-04-29T15:59:55.263Z,76.60
2023-04-29T16:02:23.590Z,76.20
2023-04-29T16:04:51.606Z,76.70
2023-04-29T16:07:20.658Z,76.80
2023-04-29T16:09:48.355Z,76.50
2023-04-29T16:12:16.038Z,75.40
2023-04-29T16:14:43.768Z,75.60
2023-04-29T16:17:12.352Z,76.00
2023-04-29T16:19:40.233Z,76.80
2023-04-29T16:22:09.796Z,75.80
2023-04-29T16:24:38.874Z,76.00
2023-04-29T16:27:06.608Z,76.10
2023-04-29T16:29:34.340Z,76.00
2023-04-29T16:32:02.190Z,76.40
2023-04-29T16:34:30.125Z,76.20
2023-04-29T16:36:57.855Z,76.30
2023-04-29T16:39:25.714Z,75.90
2023-04-29T16:41:54.724Z,76.10
2023-04-29T16:44:22.474Z,75.70
2023-04-29T16:46:50.523Z,76.60
2023-04-29T16:49:24.007Z,75.50
2023-04-29T16:51:51.997Z,75.20
2023-04-29T16:54:19.681Z,76.70
2023-04-29T16:56:48.904Z,76.40
2023-04-29T16:59:19.932Z,76.90
2023-04-29T17:01:47.863Z,76.20
2023-04-29T17:04:15.859Z,75.50
2023-04-29T17:06:43.757Z,75.70
2023-04-29T17:09:12.080Z,74.80
2023-04-29T17:11:39.862Z,78.10
2023-04-29T17:14:07.667Z,79.70
2023-04-29T17:16:36.937Z,79.30
2023-04-29T17:19:04.719Z,77.90
2023-04-29T17:21:32.732Z,76.50
2023-04-29T17:24:00.605Z,77.10
2023-04-29T17:26:28.347Z,75.80
2023-04-29T17:28:56.062Z,76.00
2023-04-29T17:31:25.481Z,76.70
2023-04-29T17:34:05.041Z,76.90
2023-04-29T17:36:33.578Z,77.00
2023-04-29T17:39:01.315Z,78.50
2023-04-29T17:41:29.042Z,78.70
2023-04-29T17:43:56.729Z,79.00
2023-04-29T17:46:24.464Z,78.70
2023-04-29T17:48:53.559Z,79.20
2023-04-29T17:51:21.212Z,78.90
2023-04-29T17:53:48.894Z,79.60
2023-04-29T17:56:16.546Z,77.90
2023-04-29T17:58:44.232Z,78.20
2023-04-29T18:01:11.968Z,79.90
2023-04-29T18:03:39.931Z,78.90
2023-04-29T18:06:09.175Z,77.30
2023-04-29T18:08:37.059Z,78.70
2023-04-29T18:11:04.890Z,79.50
2023-04-29T18:13:32.567Z,79.40
2023-04-29T18:16:00.362Z,80.20
2023-04-29T18:18:28.428Z,80.80
2023-04-29T18:20:56.458Z,81.20
2023-04-29T18:23:26.881Z,81.50
2023-04-29T18:25:54.705Z,81.90
2023-04-29T18:28:25.320Z,82.70
2023-04-29T18:30:53.636Z,81.80
2023-04-29T18:33:23.045Z,81.60
2023-04-29T18:35:50.965Z,81.70
2023-04-29T18:38:18.775Z,82.20
2023-04-29T18:40:49.538Z,82.50
2023-04-29T18:43:19.376Z,82.90
2023-04-29T18:45:47.247Z,82.80
2023-04-29T18:48:15.758Z,82.90
2023-04-29T18:50:43.786Z,83.30
2023-04-29T18:53:11.688Z,83.80
2023-04-29T18:55:39.410Z,83.80
2023-04-29T18:58:09.149Z,84.00
2023-04-29T19:00:43.211Z,83.90
2023-04-29T19:03:13.705Z,83.40
2023-04-29T19:05:41.651Z,83.90
2023-04-29T19:08:09.779Z,83.80
2023-04-29T19:10:37.579Z,84.50
2023-04-29T19:13:07.732Z,84.90
2023-04-29T19:15:36.764Z,85.50
2023-04-29T19:18:04.905Z,85.60
2023-04-29T19:20:33.245Z,85.70
2023-04-29T19:23:00.995Z,85.70
2023-04-29T19:25:28.940Z,85.80
2023-04-29T19:27:56.991Z,85.90
2023-04-29T19:30:25.470Z,86.40
2023-04-29T19:32:54.600Z,86.20
2023-04-29T19:35:22.590Z,86.20
2023-04-29T19:37:50.403Z,86.00
2023-04-29T19:40:18.218Z,86.30
2023-04-29T19:42:45.937Z,86.30
2023-04-29T19:45:13.726Z,86.50
2023-04-29T19:47:41.496Z,87.00
2023-04-29T19:50:10.858Z,87.10
2023-04-29T19:52:38.605Z,86.80
2023-04-29T19:55:08.469Z,87.10
2023-04-29T19:57:36.369Z,87.30
2023-04-29T20:00:04.968Z,87.00
2023-04-29T20:02:50.718Z,87.00
2023-04-29T20:05:19.723Z,87.40
2023-04-29T20:07:47.430Z,87.40
2023-04-29T20:10:15.260Z,87.50
2023-04-29T20:12:42.976Z,87.70
2023-04-29T20:15:11.397Z,88.20
2023-04-29T20:17:39.914Z,87.90
2023-04-29T20:20:09.814Z,87.70
2023-04-29T20:22:38.368Z,87.90
2023-04-29T20:25:06.604Z,88.10
2023-04-29T20:27:34.514Z,88.40
2023-04-29T20:30:02.499Z,88.20
2023-04-29T20:32:31.117Z,88.00
2023-04-29T20:34:59.186Z,88.00
2023-04-29T20:37:28.288Z,88.30
2023-04-29T20:39:56.035Z,88.40
2023-04-29T20:42:23.726Z,89.00
2023-04-29T20:44:51.455Z,89.10
2023-04-29T20:47:19.933Z,88.90
2023-04-29T20:49:47.851Z,88.70
2023-04-29T20:52:15.585Z,88.60
2023-04-29T20:54:44.977Z,88.70
2023-04-29T20:57:12.854Z,88.70
2023-04-29T20:59:40.789Z,88.60
2023-04-29T21:02:08.682Z,88.40
2023-04-29T21:04:36.480Z,88.50
2023-04-29T21:07:04.443Z,88.00
2023-04-29T21:09:32.260Z,87.60
2023-04-29T21:12:03.145Z,87.50
2023-04-29T21:14:34.329Z,87.50
2023-04-29T21:17:02.370Z,87.40
2023-04-29T21:19:30.086Z,87.40
2023-04-29T21:21:57.790Z,87.60
2023-04-29T21:24:26.938Z,87.70
2023-04-29T21:26:54.710Z,88.20
2023-04-29T21:29:23.776Z,88.20
2023-04-29T21:31:51.627Z,88.40
2023-04-29T21:34:19.403Z,88.50
2023-04-29T21:36:47.227Z,88.70
2023-04-29T21:39:16.281Z,88.90
2023-04-29T21:41:44.535Z,89.10
2023-04-29T21:44:12.910Z,89.00
2023-04-29T21:46:42.138Z,88.60
2023-04-29T21:49:10.434Z,88.30
2023-04-29T21:51:38.310Z,88.50
2023-04-29T21:54:08.404Z,88.70
2023-04-29T21:56:36.658Z,88.80
2023-04-29T21:59:05.666Z,89.20
2023-04-29T22:01:48.284Z,89.30
2023-04-29T22:04:17.584Z,89.50
2023-04-29T22:06:46.166Z,89.60
2023-04-29T22:09:14.026Z,89.60
2023-04-29T22:11:42.297Z,89.70
2023-04-29T22:14:10.133Z,89.70
2023-04-29T22:16:38.249Z,89.60
2023-04-29T22:19:07.004Z,89.70
2023-04-29T22:21:37.989Z,89.70
2023-04-29T22:24:06.304Z,89.60
2023-04-29T22:26:33.968Z,89.70
2023-04-29T22:29:01.698Z,89.60
2023-04-29T22:31:29.404Z,89.60
2023-04-29T22:33:57.176Z,90.00
2023-04-29T22:36:24.894Z,90.10
2023-04-29T22:38:53.960Z,89.90
2023-04-29T22:41:21.625Z,90.00
2023-04-29T22:43:49.426Z,90.10
2023-04-29T22:46:17.171Z,90.20
2023-04-29T22:48:44.860Z,90.40
2023-04-29T22:51:12.580Z,90.10
2023-04-29T22:53:40.231Z,90.10
2023-04-29T22:56:09.248Z,90.20
2023-04-29T22:58:37.156Z,90.40
2023-04-29T23:01:04.888Z,90.30
2023-04-29T23:03:32.685Z,90.40
2023-04-29T23:06:00.754Z,90.70
2023-04-29T23:08:28.869Z,90.70
2023-04-29T23:10:56.720Z,90.70
2023-04-29T23:13:25.720Z,90.60
2023-04-29T23:15:56.471Z,91.40
2023-04-29T23:18:24.270Z,91.30
2023-04-29T23:20:52.884Z,91.30
2023-04-29T23:23:20.610Z,91.40
2023-04-29T23:25:48.304Z,91.40
2023-04-29T23:28:16.778Z,91.20
2023-04-29T23:30:49.218Z,91.20
2023-04-29T23:33:16.943Z,91.10
2023-04-29T23:35:50.201Z,90.80
2023-04-29T23:38:18.397Z,90.80
2023-04-29T23:40:46.512Z,91.00
2023-04-29T23:43:15.647Z,91.30
2023-04-29T23:45:46.406Z,90.90
2023-04-29T23:48:15.553Z,90.90
2023-04-29T23:50:43.488Z,90.90
2023-04-29T23:53:11.236Z,90.90
2023-04-29T23:55:39.783Z,90.90
2023-04-29T23:58:07.515Z,91.00
